Randsburg, CA (93554)

7:39 AM PDT on April 27, 2017 (GMT -0700)
W Javis Ave, College Hts, Ridgecrest | | Change Station
Active Advisory: Wind Advisory

Elev 2530 ft 35.58 °N, 117.68 °W | Updated 1 minute ago

Partly Cloudy
Partly Cloudy
63.9 °F
Feels Like 63.9 °F
N
4.0
Wind Variable Wind from West
Gusts 9.0 mph

Today
High -- | Low -- °F
--% Chance of Precip.
Yesterday
High -- | Low -- °F
Precip. -- in
Pressure 29.74 in
Visibility 10.0 miles
Clouds Mostly Cloudy 28000 ft
Dew Point 38 °F
Humidity 38%
Rainfall 0.00 in
Snow Depth Not available.
6:03 AM 7:33 PM
New Moon, 2% visible
METAR KNID 271356Z 10004KT 10SM BKN280 14/02 A2977 RMK AO2 SLP070 T01390022 $
Pressure 29.74 in
Visibility 10.0 miles
Clouds Mostly Cloudy 28000 ft
Dew Point 38 °F
Humidity 38%
Rainfall 0.00 in
Snow Depth Not available.
6:03 AM 7:33 PM
New Moon, 2% visible
METAR KNID 271356Z 10004KT 10SM BKN280 14/02 A2977 RMK AO2 SLP070 T01390022 $

Get Your Daily Forecast Email!

Thanks for signing up!

Be on the lookout for a verification email in your inbox.

You'll start receiving severe weather alerts in your inbox..

×

10-Day Weather Forecast

Almanac

Astronomy

Apr. 27, 2017 Rise Set
Actual Time
Civil Twilight
Nautical Twilight
Astronomical Twilight
Moon
Length of Visible Light
Length of Day
Tomorrow will be .
, % of the Moon is Illuminated

Today's Extremes

State Highs State Lows

Community

WunderPhotos

WunderBlog® & News

Nearby

Air Quality

  Air Quality AQ Index Pollutant
Not available.

Snow Depth

Station Depth Elevation

Earthquake Activity

City Distance Mag. Time & Date
Minimum magnitude displayed is 2.5.

Coastal Water Temperatures

Place Temperature

Stations

Nearby Weather Stations

Station Location Temp. Windchill Dew Point Humidity Wind Precip. Elev Updated Type
                   

Watches & Warnings

Wind Advisory
Issued: 3:08 AM PDT Apr. 27, 2017 – National Weather Service

... Wind Advisory now in effect until 5 am PDT Friday...

* winds... northwest 20 to 30 mph with gusts up to 55 mph,
strongest over the ridges and through and below passes and
canyons.

* Timing... winds will decrease slightly this morning before
increasing again this afternoon. Winds will remain gusty through
early Friday morning.

* Impacts... travel will be difficult, especially for high profile
vehicles. Blowing dust may reduce visibility. Strong winds may
blow down limbs, trees, and power lines.


Precautionary/preparedness actions...

A Wind Advisory means that wind gusts of 45 mph or greater are
expected. Winds this strong can make driving difficult,
especially for high profile vehicles. Use extra caution.



Bean